createdAt,value
2022-10-01T00:00:38.872Z,999.79
2022-10-01T00:01:38.889Z,999.84
2022-10-01T00:02:38.916Z,999.87
2022-10-01T00:03:38.826Z,999.85
2022-10-01T00:04:38.817Z,999.83
2022-10-01T00:05:38.803Z,999.81
2022-10-01T00:06:38.825Z,999.79
2022-10-01T00:07:38.785Z,999.76
2022-10-01T00:08:38.776Z,999.77
2022-10-01T00:09:38.772Z,999.76
2022-10-01T00:10:38.756Z,999.74
2022-10-01T00:11:38.755Z,999.74
2022-10-01T00:12:38.726Z,999.73
2022-10-01T00:13:38.717Z,999.72
2022-10-01T00:14:38.703Z,999.72
2022-10-01T00:15:38.692Z,999.70
2022-10-01T00:16:38.737Z,999.70
2022-10-01T00:17:38.687Z,999.71
2022-10-01T00:18:38.662Z,999.68
2022-10-01T00:19:38.645Z,999.67
2022-10-01T00:20:38.649Z,999.65
2022-10-01T00:21:38.629Z,999.62
2022-10-01T00:22:38.619Z,999.63
2022-10-01T00:23:38.627Z,999.62
2022-10-01T00:24:38.605Z,999.59
2022-10-01T00:25:38.587Z,999.55
2022-10-01T00:26:38.593Z,999.52
2022-10-01T00:27:38.577Z,999.47
2022-10-01T00:28:38.567Z,999.47
2022-10-01T00:29:38.536Z,999.47
2022-10-01T00:30:40.539Z,999.48
2022-10-01T00:31:39.055Z,999.45
2022-10-01T00:32:38.507Z,999.46
2022-10-01T00:33:38.505Z,999.43
2022-10-01T00:34:38.504Z,999.42
2022-10-01T00:35:38.471Z,999.39
2022-10-01T00:36:38.465Z,999.38
2022-10-01T00:37:38.456Z,999.37
2022-10-01T00:38:38.442Z,999.36
2022-10-01T00:39:38.442Z,999.31
2022-10-01T00:40:38.426Z,999.32
2022-10-01T00:41:38.422Z,999.28
2022-10-01T00:42:38.401Z,999.29
2022-10-01T00:43:38.389Z,999.25
2022-10-01T00:44:38.419Z,999.26
2022-10-01T00:45:38.510Z,999.25
2022-10-01T00:46:38.355Z,999.22
2022-10-01T00:47:38.345Z,999.20
2022-10-01T00:48:38.341Z,999.18
2022-10-01T00:49:38.320Z,999.19
2022-10-01T00:50:38.353Z,999.18
2022-10-01T00:51:38.302Z,999.20
2022-10-01T00:52:38.293Z,999.19
2022-10-01T00:53:38.274Z,999.19
2022-10-01T00:54:38.274Z,999.17
2022-10-01T00:55:38.273Z,999.20
2022-10-01T00:56:38.273Z,999.22
2022-10-01T00:57:38.232Z,999.21
2022-10-01T00:58:38.224Z,999.23
2022-10-01T00:59:38.212Z,999.21
2022-10-01T01:00:38.208Z,999.19
2022-10-01T01:01:38.348Z,999.21
2022-10-01T01:02:38.276Z,999.19
2022-10-01T01:03:38.174Z,999.17
2022-10-01T01:04:38.176Z,999.19
2022-10-01T01:05:38.145Z,999.18
2022-10-01T01:06:38.151Z,999.18
2022-10-01T01:07:38.124Z,999.18
2022-10-01T01:08:38.162Z,999.19
2022-10-01T01:09:38.123Z,999.17
2022-10-01T05:01:03.029Z,997.29
2022-10-01T05:02:03.953Z,997.24
2022-10-01T05:03:03.935Z,997.20
2022-10-01T05:04:08.132Z,997.23
2022-10-01T05:05:03.910Z,997.20
2022-10-01T05:06:03.943Z,997.17
2022-10-01T05:07:03.880Z,997.18
2022-10-01T05:08:03.870Z,997.21
2022-10-01T05:09:04.108Z,997.12
2022-10-01T05:10:03.872Z,997.10
2022-10-01T05:11:03.805Z,997.11
2022-10-01T05:12:03.792Z,997.05
2022-10-01T05:13:03.766Z,997.07
2022-10-01T05:14:03.768Z,997.04
2022-10-01T05:15:03.759Z,996.97
2022-10-01T05:16:03.919Z,996.99
2022-10-01T05:17:03.715Z,996.98
2022-10-01T05:18:03.713Z,996.96
2022-10-01T05:19:03.710Z,996.89
2022-10-01T05:20:03.689Z,996.92
2022-10-01T05:21:03.673Z,996.96
2022-10-01T05:22:03.667Z,996.97
2022-10-01T05:23:03.650Z,996.95
2022-10-01T05:24:03.697Z,996.96
2022-10-01T05:25:03.629Z,996.99
2022-10-01T05:26:03.619Z,997.01
2022-10-01T05:27:03.614Z,996.97
2022-10-01T05:28:03.688Z,996.96
2022-10-01T05:29:03.593Z,996.95
2022-10-01T05:30:03.598Z,996.97
2022-10-01T05:31:03.690Z,996.95
2022-10-01T05:32:03.628Z,997.02
2022-10-01T05:33:09.630Z,996.98
2022-10-01T05:34:03.553Z,997.04
2022-10-01T05:35:03.525Z,997.00
2022-10-01T05:36:03.525Z,996.98
2022-10-01T05:37:03.522Z,996.99
2022-10-01T05:38:03.492Z,996.96
2022-10-01T05:39:03.501Z,996.93
2022-10-01T05:40:03.482Z,996.98
2022-10-01T05:41:03.458Z,996.99
2022-10-01T05:42:06.408Z,996.96
2022-10-01T05:43:03.444Z,997.05
2022-10-01T05:44:03.432Z,997.06
2022-10-01T05:45:03.438Z,997.03
2022-10-01T05:46:03.498Z,997.04
2022-10-01T05:47:03.387Z,997.02
2022-10-01T05:48:03.413Z,997.05
2022-10-01T05:49:03.373Z,997.02
2022-10-01T05:50:03.375Z,997.00
2022-10-01T05:51:03.354Z,997.01
2022-10-01T05:52:03.348Z,996.99
2022-10-01T05:53:03.330Z,996.98
2022-10-01T05:54:03.350Z,996.89
2022-10-01T05:55:03.332Z,996.90
2022-10-01T05:56:03.322Z,996.93
2022-10-01T05:57:03.286Z,996.95
2022-10-01T05:58:03.282Z,996.96
2022-10-01T05:59:03.262Z,996.94
2022-10-01T06:00:03.262Z,996.90
2022-10-01T06:01:03.240Z,996.91
2022-10-01T06:02:03.398Z,996.96
2022-10-01T06:03:03.350Z,996.96
2022-10-01T06:04:03.273Z,996.95
2022-10-01T06:05:03.204Z,996.93
2022-10-01T06:06:03.192Z,996.94
2022-10-01T06:07:03.195Z,996.89
2022-10-01T06:08:03.166Z,996.87
2022-10-01T06:09:03.153Z,996.93
2022-10-01T06:10:03.169Z,996.86
2022-10-01T06:11:03.139Z,996.81
2022-10-01T06:12:03.130Z,996.76
2022-10-01T06:13:03.112Z,996.74
2022-10-01T06:14:03.101Z,996.70
2022-10-01T06:15:03.098Z,996.73
2022-10-01T06:16:03.170Z,996.78
2022-10-01T06:17:03.085Z,996.76
2022-10-01T06:18:03.065Z,996.72
2022-10-01T06:19:03.048Z,996.75
2022-10-01T06:20:03.042Z,996.72
2022-10-01T06:21:03.046Z,996.64
2022-10-01T06:22:03.026Z,996.58
2022-10-01T06:23:03.012Z,996.62
2022-10-01T06:24:02.999Z,996.57
2022-10-01T06:25:02.996Z,996.51
2022-10-01T06:26:02.985Z,996.41
2022-10-01T06:27:02.975Z,996.39
2022-10-01T06:28:02.979Z,996.30
2022-10-01T06:29:02.938Z,996.28
2022-10-01T06:30:02.950Z,996.21
2022-10-01T06:31:02.931Z,996.18
2022-10-01T06:32:02.939Z,996.22
2022-10-01T06:33:02.910Z,996.25
2022-10-01T06:34:02.888Z,996.20
2022-10-01T06:35:02.886Z,996.25
2022-10-01T06:36:02.883Z,996.31
2022-10-01T06:37:02.867Z,996.29
2022-10-01T06:38:02.857Z,996.33
2022-10-01T06:39:02.842Z,996.29
2022-10-01T06:40:02.824Z,996.41
2022-10-01T06:41:02.807Z,996.39
2022-10-01T06:42:02.802Z,996.34
2022-10-01T06:43:02.791Z,996.38
2022-10-01T06:44:02.804Z,996.37
2022-10-01T06:45:02.773Z,996.36
2022-10-01T06:46:03.033Z,996.41
2022-10-01T06:47:02.745Z,996.48
2022-10-01T06:48:02.826Z,996.54
2022-10-01T06:49:02.720Z,996.49
2022-10-01T06:50:02.720Z,996.52
2022-10-01T06:51:02.727Z,996.54
2022-10-01T06:52:02.693Z,996.52
2022-10-01T06:53:02.687Z,996.52
2022-10-01T06:54:02.687Z,996.47
2022-10-01T06:55:02.663Z,996.46
2022-10-01T06:56:02.645Z,996.46
2022-10-01T06:57:02.648Z,996.49
2022-10-01T06:58:02.654Z,996.35
2022-10-01T06:59:02.615Z,996.26
2022-10-01T07:00:02.617Z,996.28
2022-10-01T07:01:02.692Z,996.20
2022-10-01T07:02:02.609Z,996.12
2022-10-01T07:03:02.585Z,996.01
2022-10-01T07:04:02.588Z,995.96
2022-10-01T07:05:02.564Z,995.82
2022-10-01T07:06:02.545Z,995.79
2022-10-01T07:07:02.529Z,995.75
2022-10-01T07:08:02.522Z,995.73
2022-10-01T07:09:02.512Z,995.78
2022-10-01T07:10:02.519Z,995.75
2022-10-01T07:11:02.493Z,995.82
2022-10-01T07:12:02.477Z,995.82
2022-10-01T07:13:02.464Z,995.83
2022-10-01T07:14:02.451Z,995.90
2022-10-01T07:15:02.441Z,995.86
2022-10-01T07:16:02.520Z,995.86
2022-10-01T07:17:02.436Z,995.83
2022-10-01T07:18:02.412Z,995.90
2022-10-01T07:19:02.412Z,995.89
2022-10-01T07:20:02.392Z,995.84
2022-10-01T07:21:02.376Z,995.89
2022-10-01T07:22:02.378Z,996.03
2022-10-01T07:23:02.362Z,995.98
2022-10-01T07:24:02.350Z,996.01
2022-10-01T07:25:02.339Z,995.98
2022-10-01T07:26:02.321Z,995.97
2022-10-01T07:27:07.099Z,995.89
2022-10-01T07:28:02.361Z,995.73
2022-10-01T07:29:02.290Z,995.81
2022-10-01T07:30:02.285Z,995.96
2022-10-01T07:31:02.280Z,996.00
2022-10-01T07:32:02.359Z,996.17
2022-10-01T07:33:02.265Z,996.28
2022-10-01T07:34:02.230Z,996.31
2022-10-01T07:35:02.230Z,996.31
2022-10-01T07:36:02.231Z,996.28
2022-10-01T07:37:02.201Z,996.31
2022-10-01T07:38:02.214Z,996.33
2022-10-01T07:39:02.188Z,996.29
2022-10-01T07:40:06.671Z,996.21
2022-10-01T07:41:02.167Z,996.21
2022-10-01T07:42:02.147Z,996.17
2022-10-01T07:43:02.143Z,996.13
2022-10-01T07:44:02.175Z,996.08
2022-10-01T07:45:02.118Z,996.00
2022-10-01T07:46:02.243Z,995.99
2022-10-01T07:47:02.096Z,996.03
2022-10-01T07:48:02.082Z,996.10
2022-10-01T07:49:02.077Z,996.04
2022-10-01T07:50:02.098Z,996.04
2022-10-01T07:51:02.058Z,996.11
2022-10-01T07:52:02.044Z,996.05
2022-10-01T07:53:02.036Z,996.09
2022-10-01T07:54:02.022Z,996.21
2022-10-01T07:55:02.029Z,996.12
2022-10-01T07:56:02.009Z,996.10
2022-10-01T07:57:01.993Z,996.04
2022-10-01T07:58:01.977Z,995.99
2022-10-01T07:59:01.973Z,996.03
2022-10-01T08:00:01.949Z,996.03
2022-10-01T08:01:02.040Z,996.05
2022-10-01T08:02:01.984Z,996.11
2022-10-01T08:03:01.935Z,996.14
2022-10-01T08:04:01.916Z,996.18
2022-10-01T08:05:01.929Z,996.10
2022-10-01T08:06:01.921Z,996.09
2022-10-01T08:07:01.884Z,996.22
2022-10-01T08:08:01.874Z,996.10
2022-10-01T08:09:01.860Z,996.11
2022-10-01T08:10:01.873Z,996.03
2022-10-01T08:11:01.844Z,996.02
2022-10-01T08:12:01.822Z,996.02
2022-10-01T08:13:01.817Z,995.99
2022-10-01T08:14:01.813Z,996.03
2022-10-01T08:15:01.798Z,996.10
2022-10-01T08:16:01.810Z,996.14
2022-10-01T08:17:01.887Z,996.14
2022-10-01T08:18:01.756Z,996.25
2022-10-01T08:19:01.755Z,996.27
2022-10-01T08:20:01.738Z,996.33
2022-10-01T08:21:01.731Z,996.33
2022-10-01T08:22:01.744Z,996.30
2022-10-01T08:23:01.705Z,996.24
2022-10-01T08:24:01.691Z,996.15
2022-10-01T08:25:01.686Z,996.08
2022-10-01T08:26:01.668Z,996.03
2022-10-01T08:27:01.678Z,995.99
2022-10-01T08:28:01.680Z,996.07
2022-10-01T08:29:01.643Z,996.19
2022-10-01T08:30:01.627Z,996.10
2022-10-01T08:31:01.617Z,996.20
2022-10-01T08:32:01.673Z,996.26
2022-10-01T08:33:01.607Z,996.24
2022-10-01T08:34:01.586Z,996.18
2022-10-01T08:35:01.604Z,996.20
2022-10-01T08:36:01.563Z,996.18
2022-10-01T08:37:01.556Z,996.16
2022-10-01T08:38:01.547Z,996.21
2022-10-01T08:39:01.542Z,996.13
2022-10-01T08:40:01.539Z,996.24
2022-10-01T08:41:01.562Z,996.29
2022-10-01T08:42:01.497Z,996.47
2022-10-01T08:43:01.501Z,996.58
2022-10-01T08:44:01.503Z,996.60
2022-10-01T08:45:01.477Z,996.63
2022-10-01T08:46:01.546Z,996.72
2022-10-01T08:47:01.459Z,996.69
2022-10-01T08:48:01.441Z,996.65
2022-10-01T08:49:01.436Z,996.64
2022-10-01T08:50:01.447Z,996.62
2022-10-01T08:51:01.424Z,996.62
2022-10-01T08:52:01.390Z,996.65
2022-10-01T08:53:01.389Z,996.68
2022-10-01T08:54:01.369Z,996.69
2022-10-01T08:55:01.379Z,996.63
2022-10-01T08:56:01.360Z,996.64
2022-10-01T08:57:01.351Z,996.64
2022-10-01T08:58:01.331Z,996.63
2022-10-01T08:59:01.323Z,996.64
2022-10-01T09:00:01.315Z,996.65
2022-10-01T09:01:01.376Z,996.65
2022-10-01T09:02:01.284Z,996.56
2022-10-01T09:03:01.289Z,996.62
2022-10-01T09:04:01.299Z,996.63
2022-10-01T09:05:02.311Z,996.66
2022-10-01T09:06:01.256Z,996.71
2022-10-01T09:07:01.234Z,996.75
2022-10-01T09:08:01.253Z,996.70
2022-10-01T09:09:01.215Z,996.73
2022-10-01T09:10:01.200Z,996.70
2022-10-01T09:11:01.199Z,996.65
2022-10-01T09:12:01.187Z,996.60
2022-10-01T09:13:01.167Z,996.55
2022-10-01T09:14:01.183Z,996.59
2022-10-01T09:15:01.144Z,996.56
2022-10-01T09:16:01.200Z,996.55
2022-10-01T09:17:01.151Z,996.59
2022-10-01T09:18:01.110Z,996.61
2022-10-01T09:19:01.126Z,996.59
2022-10-01T09:20:01.090Z,996.60
2022-10-01T09:21:01.099Z,996.62
2022-10-01T09:22:01.070Z,996.57
2022-10-01T09:23:01.071Z,996.59
2022-10-01T09:24:01.080Z,996.58
2022-10-01T09:25:01.047Z,996.62
2022-10-01T09:26:01.044Z,996.58
2022-10-01T09:27:01.025Z,996.61
2022-10-01T09:28:01.036Z,996.60
2022-10-01T09:29:01.092Z,996.62
2022-10-01T09:30:00.996Z,996.57
2022-10-01T09:31:00.997Z,996.57
2022-10-01T09:32:01.012Z,996.62
2022-10-01T09:33:00.954Z,996.58
2022-10-01T09:34:00.956Z,996.61
2022-10-01T09:35:04.433Z,996.62
2022-10-01T09:36:00.965Z,996.66
2022-10-01T09:37:00.922Z,996.64
2022-10-01T09:38:00.923Z,996.61
2022-10-01T09:39:00.903Z,996.61
2022-10-01T09:40:00.871Z,996.61
2022-10-01T09:41:00.882Z,996.61
2022-10-01T09:42:00.865Z,996.64
2022-10-01T09:43:00.847Z,996.66
2022-10-01T09:44:00.836Z,996.62
2022-10-01T09:45:00.831Z,996.69
2022-10-01T09:46:00.835Z,996.66
2022-10-01T09:47:00.822Z,996.65
2022-10-01T09:48:00.784Z,996.65
2022-10-01T09:49:00.791Z,996.63
2022-10-01T09:50:00.769Z,996.65
2022-10-01T09:51:00.776Z,996.69
2022-10-01T09:52:00.745Z,996.66
2022-10-01T09:53:00.753Z,996.66
2022-10-01T09:54:00.729Z,996.64
2022-10-01T09:55:00.733Z,996.61
2022-10-01T09:56:00.713Z,996.60
2022-10-01T09:57:00.687Z,996.64
2022-10-01T09:58:00.682Z,996.64
2022-10-01T09:59:00.688Z,996.64
2022-10-01T10:00:00.657Z,996.64
2022-10-01T10:01:00.675Z,996.61
2022-10-01T10:02:00.734Z,996.61
2022-10-01T10:03:00.804Z,996.59
2022-10-01T10:04:00.613Z,996.60
2022-10-01T10:05:00.621Z,996.56
2022-10-01T10:06:00.598Z,996.63
2022-10-01T10:07:00.592Z,996.67
2022-10-01T10:08:00.566Z,996.62
2022-10-01T10:09:00.603Z,996.66
2022-10-01T10:10:00.789Z,996.62
2022-10-01T10:11:00.748Z,996.67
2022-10-01T10:12:00.531Z,996.71
2022-10-01T10:13:00.519Z,996.65
2022-10-01T10:14:00.510Z,996.68
2022-10-01T10:15:00.524Z,996.70
2022-10-01T10:16:00.677Z,996.73
2022-10-01T10:17:00.471Z,996.70
2022-10-01T10:18:00.457Z,996.73
2022-10-01T10:19:00.455Z,996.67
2022-10-01T10:20:00.436Z,996.71
2022-10-01T10:21:00.440Z,996.71
2022-10-01T10:22:00.437Z,996.73
2022-10-01T10:23:00.411Z,996.73
2022-10-01T10:24:00.395Z,996.75
2022-10-01T10:25:00.389Z,996.74
2022-10-01T10:26:00.371Z,996.72
2022-10-01T10:27:00.382Z,996.76
2022-10-01T10:28:00.402Z,996.72
2022-10-01T10:29:00.348Z,996.80
2022-10-01T10:30:00.349Z,996.74
2022-10-01T10:31:00.476Z,996.74
2022-10-01T10:32:00.471Z,996.75
2022-10-01T10:33:00.300Z,996.77
2022-10-01T10:34:00.306Z,996.75
2022-10-01T10:35:03.109Z,996.71
2022-10-01T10:36:01.994Z,996.73
2022-10-01T10:37:00.269Z,996.68
2022-10-01T10:38:00.242Z,996.75
2022-10-01T10:39:00.243Z,996.72
2022-10-01T10:40:00.228Z,996.73
2022-10-01T10:41:00.220Z,996.68
2022-10-01T10:42:00.251Z,996.71
2022-10-01T10:43:00.232Z,996.69
2022-10-01T10:44:00.179Z,996.71
2022-10-01T10:45:00.188Z,996.76
2022-10-01T10:46:00.257Z,996.68
2022-10-01T10:47:00.149Z,996.64
2022-10-01T10:48:00.187Z,996.64
2022-10-01T10:49:00.137Z,996.67
2022-10-01T10:50:00.170Z,996.67
2022-10-01T10:51:00.131Z,996.65
2022-10-01T10:52:00.103Z,996.64
2022-10-01T10:53:00.109Z,996.64
2022-10-01T10:54:00.125Z,996.64
2022-10-01T10:55:00.064Z,996.66
2022-10-01T10:56:00.047Z,996.61
2022-10-01T10:57:00.071Z,996.60
2022-10-01T10:58:03.291Z,996.64
2022-10-01T10:59:00.025Z,996.65
2022-10-01T11:00:00.037Z,996.68
2022-10-01T11:01:00.114Z,996.67
2022-10-01T11:02:00.128Z,996.65
2022-10-01T11:03:00.661Z,996.64
2022-10-01T11:03:59.961Z,996.67
2022-10-01T11:04:59.984Z,996.64
2022-10-01T11:05:59.944Z,996.66
2022-10-01T11:06:59.931Z,996.69
2022-10-01T11:07:59.929Z,996.66
2022-10-01T11:08:59.911Z,996.74
2022-10-01T11:09:59.918Z,996.74
2022-10-01T11:10:59.896Z,996.71
2022-10-01T11:11:59.880Z,996.72
2022-10-01T11:12:59.866Z,996.71
2022-10-01T11:13:59.861Z,996.74
2022-10-01T11:14:59.846Z,996.71
2022-10-01T11:15:59.923Z,996.70
2022-10-01T11:16:59.823Z,996.74
2022-10-01T11:17:59.819Z,996.75
2022-10-01T11:18:59.802Z,996.74
2022-10-01T11:19:59.788Z,996.78
2022-10-01T11:20:59.785Z,996.78
2022-10-01T11:21:59.797Z,996.83
2022-10-01T11:22:59.758Z,996.78
2022-10-01T11:23:59.750Z,996.80
2022-10-01T11:24:59.745Z,996.84
2022-10-01T11:25:59.737Z,996.86
2022-10-01T11:26:59.712Z,996.87
2022-10-01T11:27:59.766Z,996.90
2022-10-01T11:28:59.824Z,996.91
2022-10-01T11:29:59.685Z,996.92
2022-10-01T11:30:59.677Z,996.87
2022-10-01T11:31:59.662Z,996.86
2022-10-01T11:33:54.698Z,996.96
2022-10-01T11:34:55.649Z,996.95
2022-10-01T11:35:55.641Z,996.96
2022-10-01T11:36:55.693Z,996.95
2022-10-01T11:37:55.623Z,996.93
2022-10-01T11:38:55.631Z,996.94
2022-10-01T11:39:55.595Z,996.95
2022-10-01T11:40:55.599Z,996.97
2022-10-01T11:41:55.590Z,996.93
2022-10-01T11:42:55.563Z,996.94
2022-10-01T11:43:55.588Z,996.94
2022-10-01T11:45:00.428Z,996.96
2022-10-01T11:45:55.739Z,996.95
2022-10-01T11:46:55.602Z,997.01
2022-10-01T11:47:55.513Z,996.96
2022-10-01T11:48:55.515Z,997.00
2022-10-01T11:49:55.522Z,996.95
2022-10-01T11:50:55.494Z,996.97
2022-10-01T11:51:55.468Z,996.93
2022-10-01T11:52:55.465Z,996.95
2022-10-01T11:53:55.452Z,996.95
2022-10-01T11:54:56.364Z,996.94
2022-10-01T11:55:55.462Z,996.91
2022-10-01T11:56:55.413Z,996.87
2022-10-01T11:57:55.402Z,996.85
2022-10-01T11:58:55.403Z,996.86
2022-10-01T11:59:55.388Z,996.85
2022-10-01T12:00:55.373Z,996.85
2022-10-01T12:01:55.398Z,996.84
2022-10-01T12:02:55.346Z,996.80
2022-10-01T12:03:55.340Z,996.88
2022-10-01T12:04:55.338Z,996.87
2022-10-01T12:05:55.390Z,996.89
2022-10-01T12:06:55.305Z,996.86
2022-10-01T12:07:55.308Z,996.85
2022-10-01T12:08:55.289Z,996.90
2022-10-01T12:09:55.276Z,996.91
2022-10-01T12:10:55.267Z,996.84
2022-10-01T12:11:55.287Z,996.88
2022-10-01T12:12:55.239Z,996.87
2022-10-01T12:13:55.239Z,996.89
2022-10-01T12:14:55.249Z,996.89
2022-10-01T12:15:55.284Z,996.93
2022-10-01T12:16:55.217Z,996.90
2022-10-01T12:17:55.197Z,996.90
2022-10-01T12:18:55.180Z,996.93
2022-10-01T12:19:55.177Z,996.90
2022-10-01T12:20:55.173Z,996.91
2022-10-01T12:21:55.149Z,996.93
2022-10-01T12:22:55.148Z,996.94
2022-10-01T12:23:55.147Z,996.95
2022-10-01T12:24:55.111Z,996.96
2022-10-01T12:25:55.104Z,996.99
2022-10-01T12:26:55.087Z,997.02
2022-10-01T12:27:55.147Z,997.00
2022-10-01T12:28:59.924Z,996.94
2022-10-01T12:29:55.065Z,996.96
2022-10-01T12:30:55.086Z,996.96
2022-10-01T12:31:55.040Z,996.94
2022-10-01T12:32:55.035Z,996.91
2022-10-01T12:33:55.081Z,996.95
2022-10-01T12:34:55.005Z,996.97
2022-10-01T12:35:54.992Z,996.94
2022-10-01T12:36:54.980Z,996.94
2022-10-01T12:37:54.970Z,996.93
2022-10-01T12:38:54.954Z,996.96
2022-10-01T12:39:54.973Z,996.96
2022-10-01T12:40:54.935Z,996.99
2022-10-01T12:41:54.928Z,996.99
2022-10-01T12:42:54.924Z,997.01
2022-10-01T12:43:54.934Z,996.95
2022-10-01T12:44:54.906Z,996.96
2022-10-01T12:45:54.921Z,996.97
2022-10-01T12:46:54.875Z,996.93
2022-10-01T12:47:54.857Z,996.93
2022-10-01T12:48:54.855Z,996.93
2022-10-01T12:49:54.874Z,996.95
2022-10-01T12:50:54.830Z,996.97
2022-10-01T12:51:54.819Z,996.96
2022-10-01T12:52:54.807Z,996.94
2022-10-01T12:53:54.798Z,996.92
2022-10-01T12:54:54.786Z,996.93
2022-10-01T12:55:54.789Z,996.90
2022-10-01T12:56:54.767Z,996.89
2022-10-01T12:57:54.760Z,996.91
2022-10-01T12:58:54.748Z,996.88
2022-10-01T12:59:54.743Z,996.97
2022-10-01T13:00:54.762Z,996.95
2022-10-01T13:01:54.807Z,996.93
2022-10-01T13:02:54.693Z,996.92
2022-10-01T13:03:54.706Z,996.93
2022-10-01T13:04:54.671Z,996.91
2022-10-01T13:05:54.667Z,996.89
2022-10-01T13:06:54.650Z,996.92
2022-10-01T13:07:54.673Z,996.92
2022-10-01T13:08:54.642Z,996.89
2022-10-01T13:09:54.622Z,996.90
2022-10-01T13:10:54.608Z,996.88
2022-10-01T13:11:54.606Z,996.83
2022-10-01T13:12:54.603Z,996.86
2022-10-01T13:13:54.586Z,996.87
2022-10-01T13:14:54.588Z,996.89
2022-10-01T13:15:54.619Z,996.87
2022-10-01T13:16:54.548Z,996.87
2022-10-01T13:17:54.557Z,996.91
2022-10-01T13:18:54.537Z,996.91
2022-10-01T13:19:54.522Z,996.89
2022-10-01T13:20:54.513Z,996.83
2022-10-01T13:21:54.496Z,996.86
2022-10-01T13:22:54.482Z,996.88
2022-10-01T13:23:54.473Z,996.87
2022-10-01T13:24:54.477Z,996.90
2022-10-01T13:25:54.454Z,996.91
2022-10-01T13:26:54.441Z,996.85
2022-10-01T13:27:54.460Z,996.86
2022-10-01T13:28:54.415Z,996.91
2022-10-01T13:29:54.432Z,996.89
2022-10-01T13:30:54.416Z,996.88
2022-10-01T13:31:54.391Z,996.87
2022-10-01T13:32:54.376Z,996.90
2022-10-01T13:33:54.366Z,996.92
2022-10-01T13:34:54.345Z,996.88
2022-10-01T13:35:54.368Z,996.91
2022-10-01T13:36:54.329Z,996.89
2022-10-01T13:37:54.327Z,996.88
2022-10-01T13:38:54.312Z,996.87
2022-10-01T13:39:54.292Z,996.85
2022-10-01T13:40:54.286Z,996.85
2022-10-01T13:41:54.290Z,996.82
2022-10-01T13:42:54.258Z,996.80
2022-10-01T13:43:54.274Z,996.80
2022-10-01T13:44:54.247Z,996.77
2022-10-01T13:45:54.267Z,996.84
2022-10-01T13:46:54.228Z,996.85
2022-10-01T13:47:54.217Z,996.81
2022-10-01T13:48:54.221Z,996.79
2022-10-01T13:49:54.191Z,996.74
2022-10-01T13:50:54.177Z,996.75
2022-10-01T13:51:54.206Z,996.77
2022-10-01T13:52:54.173Z,996.79
2022-10-01T13:53:54.145Z,996.78
2022-10-01T13:54:54.140Z,996.79
2022-10-01T13:55:54.133Z,996.78
2022-10-01T13:56:54.104Z,996.78
2022-10-01T13:57:54.121Z,996.80
2022-10-01T13:58:54.087Z,996.77
2022-10-01T13:59:54.085Z,996.78
2022-10-01T14:00:54.071Z,996.79
2022-10-01T14:01:54.089Z,996.86
2022-10-01T14:02:54.118Z,996.84
2022-10-01T14:03:54.049Z,996.88
2022-10-01T14:04:54.015Z,996.85
2022-10-01T14:05:54.019Z,996.85
2022-10-01T14:06:54.011Z,996.88
2022-10-01T14:07:54.002Z,996.89
2022-10-01T14:08:54.002Z,996.87
2022-10-01T14:09:53.994Z,996.89
2022-10-01T14:10:53.955Z,996.84
2022-10-01T14:11:53.960Z,996.92
2022-10-01T14:12:53.939Z,996.88
2022-10-01T14:13:53.940Z,996.86
2022-10-01T14:14:53.964Z,996.89
2022-10-01T14:15:54.071Z,996.89
2022-10-01T14:16:53.984Z,996.85
2022-10-01T14:17:53.939Z,996.92
2022-10-01T14:18:53.941Z,996.90
2022-10-01T14:19:53.896Z,996.94
2022-10-01T14:20:53.876Z,996.93
2022-10-01T14:21:53.899Z,996.94
2022-10-01T14:22:53.907Z,996.94
2022-10-01T14:23:53.841Z,996.93
2022-10-01T14:24:53.840Z,996.93
2022-10-01T14:25:54.015Z,996.88
2022-10-01T14:26:53.792Z,996.88
2022-10-01T14:27:53.862Z,996.94
2022-10-01T14:28:53.786Z,996.96
2022-10-01T14:29:53.778Z,996.94
2022-10-01T14:30:53.850Z,996.92
2022-10-01T14:31:53.806Z,996.89
2022-10-01T14:32:53.720Z,996.89
2022-10-01T14:33:53.755Z,996.89
2022-10-01T14:34:53.722Z,996.93
2022-10-01T14:35:53.723Z,996.92
2022-10-01T14:36:53.677Z,996.91
2022-10-01T14:37:53.681Z,996.88
2022-10-01T14:38:53.679Z,996.93
2022-10-01T14:39:53.654Z,996.89
2022-10-01T14:40:53.653Z,996.94
2022-10-01T14:41:53.659Z,996.95
2022-10-01T14:42:53.645Z,996.97
2022-10-01T14:43:53.618Z,996.95
2022-10-01T14:44:53.620Z,996.96
2022-10-01T14:45:53.588Z,996.95
2022-10-01T14:46:53.623Z,996.90
2022-10-01T14:47:53.637Z,996.89
2022-10-01T14:48:53.539Z,996.91
2022-10-01T14:49:53.550Z,996.97
2022-10-01T14:50:53.575Z,996.96
2022-10-01T14:51:53.567Z,996.96
2022-10-01T14:52:53.549Z,996.97
2022-10-01T14:53:53.511Z,996.98
2022-10-01T14:54:53.494Z,996.92
2022-10-01T14:55:53.500Z,996.89
2022-10-01T14:56:53.468Z,996.92
2022-10-01T14:57:53.439Z,996.90
2022-10-01T14:58:53.440Z,996.90
2022-10-01T14:59:53.427Z,996.93
2022-10-01T15:00:53.418Z,996.94
2022-10-01T15:01:53.397Z,996.95
2022-10-01T15:02:53.385Z,996.94
2022-10-01T15:03:53.439Z,996.94
2022-10-01T15:04:53.435Z,996.98
2022-10-01T15:05:53.405Z,996.97
2022-10-01T15:06:53.362Z,997.01
2022-10-01T15:07:53.341Z,996.98
2022-10-01T15:08:53.343Z,996.96
2022-10-01T15:09:53.337Z,996.94
2022-10-01T15:10:53.304Z,996.93
2022-10-01T15:11:53.343Z,997.02
2022-10-01T15:12:53.275Z,997.07
2022-10-01T15:13:53.281Z,997.06
2022-10-01T15:14:53.283Z,997.07
2022-10-01T15:15:53.355Z,997.12
2022-10-01T15:16:53.285Z,997.11
2022-10-01T15:17:53.236Z,997.11
2022-10-01T15:18:53.222Z,997.14
2022-10-01T15:19:53.205Z,997.17
2022-10-01T15:20:54.130Z,997.18
2022-10-01T15:21:53.214Z,997.25
2022-10-01T15:22:53.205Z,997.21
2022-10-01T15:23:53.173Z,997.22
2022-10-01T15:24:53.150Z,997.22
2022-10-01T15:25:53.156Z,997.23
2022-10-01T15:26:53.168Z,997.24
2022-10-01T15:27:53.179Z,997.20
2022-10-01T15:28:53.117Z,997.27
2022-10-01T15:29:56.346Z,997.27
2022-10-01T15:30:53.113Z,997.29
2022-10-01T15:31:53.177Z,997.29
2022-10-01T15:32:53.083Z,997.15
2022-10-01T15:33:53.054Z,997.33
2022-10-01T15:34:53.047Z,997.30
2022-10-01T15:35:53.044Z,997.28
2022-10-01T15:36:53.023Z,997.34
2022-10-01T15:37:53.027Z,997.28
2022-10-01T15:38:53.026Z,997.30
2022-10-01T15:39:52.991Z,997.33
2022-10-01T15:40:52.986Z,997.35
2022-10-01T15:41:52.967Z,997.32
2022-10-01T15:42:52.983Z,997.36
2022-10-01T15:43:53.021Z,997.43
2022-10-01T15:44:52.942Z,997.44
2022-10-01T15:45:53.001Z,997.44
2022-10-01T15:46:52.918Z,997.41
2022-10-01T15:47:52.914Z,997.42
2022-10-01T15:48:52.913Z,997.42
2022-10-01T15:49:52.904Z,997.48
2022-10-01T15:50:52.863Z,997.47
2022-10-01T15:51:55.689Z,997.55
2022-10-01T15:52:52.867Z,997.53
2022-10-01T15:53:52.839Z,997.56
2022-10-01T15:54:52.871Z,997.60
2022-10-01T15:55:52.822Z,997.68
2022-10-01T15:56:52.825Z,997.60
2022-10-01T15:57:52.792Z,997.64
2022-10-01T15:58:52.802Z,997.70
2022-10-01T15:59:52.766Z,997.70
2022-10-01T16:00:52.789Z,997.75
2022-10-01T16:01:52.801Z,997.75
2022-10-01T16:02:52.738Z,997.79
2022-10-01T16:03:52.732Z,997.85
2022-10-01T16:04:52.711Z,997.82
2022-10-01T16:05:52.706Z,997.81
2022-10-01T16:06:52.721Z,997.91
2022-10-01T16:07:52.686Z,997.85
2022-10-01T16:08:52.675Z,997.94
2022-10-01T16:09:52.673Z,997.95
2022-10-01T16:10:52.650Z,997.99
2022-10-01T16:11:52.650Z,997.99
2022-10-01T16:12:52.649Z,998.03
2022-10-01T16:13:52.636Z,998.09
2022-10-01T16:14:52.616Z,998.08
2022-10-01T16:15:52.606Z,998.17
2022-10-01T16:16:52.613Z,998.22
2022-10-01T16:17:52.575Z,998.20
2022-10-01T16:18:52.604Z,998.25
2022-10-01T16:19:52.557Z,998.28